EmailTwitter


Observations de surface / Québec / LFRC

Régions: Québec | Canada | États-Unis | Europe | France | UK | Elsewhere
Station
Affichage
Infos & localisation pour LFRC | Aide pour décoder les METARs

Observations prises le 2017-02-24 à 10H00 UTC à CHERBOURG/MAUPER, FR (LFRC)

Etat du ciel: partiellement nuageux.

Température: 8.0 Celsius

Point de rosée: 1.0 Celsius

Humidité relative: 61%

Facteur vent: 5.

Vents: Ouest-nord-ouest à 20 km/h ou 11 noeuds.

Pression au niveau moyen de la mer: 101.90 kilopascals.

Visibilité horizontale: 6.21 milles terrestres ou 9.94 kilomètres.

Hauteur du plafond: 914 mètres ( 3000 pieds ).

Observation METAR:

LFRC 241000Z AUTO 29011KT 260V320 9999 FEW025 BKN030 BKN039 08/01 Q1019 TEMPO

31015G25KT SHRA=